Time;durP1;ratioP1;P1;durP2;ratioP2;P2;SDS_P1;SDS_P2;PMS_P1;PMS_P2;Temp;Humidity;BMP_temperature;BMP_pressure;BME280_temperature;BME280_humidity;BME280_pressure;Samples;Min_cycle;Max_cycle;Signal;HPM_P1;HPM_P2
2024/02/25 00:00:57;;;;;;;3.78;1.55;;;;;;;1.70;100.00;91814.53;4750663;30;20036;-80
2024/02/25 00:03:23;;;;;;;2.20;1.50;;;;;;;1.68;100.00;91814.75;4750761;30;20034;-80
2024/02/25 00:05:49;;;;;;;4.53;1.60;;;;;;;1.69;100.00;91812.94;4751781;30;20562;-81
2024/02/25 00:08:15;;;;;;;2.85;1.60;;;;;;;1.70;100.00;91814.53;4752484;30;20206;-81
2024/02/25 00:10:42;;;;;;;2.88;1.65;;;;;;;1.66;100.00;91809.84;4751919;30;20379;-81
2024/02/25 00:13:08;;;;;;;2.72;1.50;;;;;;;1.69;100.00;91816.34;4753998;30;20114;-79
2024/02/25 00:15:34;;;;;;;2.17;1.40;;;;;;;1.72;100.00;91809.88;4755817;30;20175;-81
2024/02/25 00:18:00;;;;;;;2.50;1.60;;;;;;;1.71;100.00;91814.25;4753561;30;20040;-80
2024/02/25 00:20:25;;;;;;;2.53;1.58;;;;;;;1.69;100.00;91813.75;4755641;30;20709;-80
2024/02/25 00:22:51;;;;;;;3.03;1.80;;;;;;;1.71;100.00;91818.63;4751302;30;20045;-80
2024/02/25 00:25:16;;;;;;;3.63;1.88;;;;;;;1.70;100.00;91807.56;4756092;30;20051;-81
2024/02/25 00:27:42;;;;;;;3.35;1.88;;;;;;;1.71;100.00;91811.66;4759646;30;20096;-80
2024/02/25 00:30:08;;;;;;;2.88;1.80;;;;;;;1.73;100.00;91819.94;4753596;30;20044;-81
2024/02/25 00:32:34;;;;;;;3.83;1.90;;;;;;;1.73;100.00;91817.38;4758757;30;20035;-81
2024/02/25 00:35:00;;;;;;;4.28;1.90;;;;;;;1.74;100.00;91811.19;4762277;30;20048;-82
2024/02/25 00:37:27;;;;;;;2.40;1.58;;;;;;;1.76;100.00;91816.88;4748937;30;20052;-80
2024/02/25 00:39:53;;;;;;;3.08;1.60;;;;;;;1.73;100.00;91807.03;4754351;30;20079;-80
2024/02/25 00:42:18;;;;;;;2.65;1.83;;;;;;;1.76;100.00;91809.16;4757553;30;20028;-80
2024/02/25 00:44:48;;;;;;;3.20;1.70;;;;;;;1.76;100.00;91811.72;4753785;30;20059;-81
2024/02/25 00:47:16;;;;;;;3.08;1.80;;;;;;;1.73;100.00;91806.28;4755762;30;20052;-80
2024/02/25 00:49:42;;;;;;;2.83;1.77;;;;;;;1.74;100.00;91807.84;4754653;30;20068;-81
2024/02/25 00:52:08;;;;;;;2.88;1.67;;;;;;;1.78;100.00;91817.41;4757889;30;20086;-81
2024/02/25 00:54:33;;;;;;;2.78;1.60;;;;;;;1.79;100.00;91815.59;4751204;30;20127;-81
2024/02/25 00:56:59;;;;;;;2.60;1.70;;;;;;;1.80;100.00;91817.16;4754781;30;20067;-79
2024/02/25 00:59:24;;;;;;;2.22;1.67;;;;;;;1.80;100.00;91814.56;4754592;30;20043;-81
2024/02/25 01:01:53;;;;;;;3.22;1.80;;;;;;;1.79;100.00;91815.59;4767659;30;20111;-80
2024/02/25 01:04:19;;;;;;;3.13;1.70;;;;;;;1.79;100.00;91811.22;4758027;30;20054;-81
2024/02/25 01:06:46;;;;;;;3.95;1.85;;;;;;;1.81;100.00;91818.72;4738327;30;20075;-80
2024/02/25 01:09:12;;;;;;;5.78;1.73;;;;;;;1.85;100.00;91806.88;4743322;30;20059;-81
2024/02/25 01:11:39;;;;;;;2.30;1.50;;;;;;;1.83;100.00;91808.94;4777122;30;20799;-81
2024/02/25 01:14:04;;;;;;;3.25;1.60;;;;;;;1.83;100.00;91806.34;4748854;30;20032;-82
2024/02/25 01:16:30;;;;;;;2.75;1.70;;;;;;;1.83;100.00;91803.78;4749800;30;20133;-82
2024/02/25 01:18:56;;;;;;;2.33;1.63;;;;;;;1.82;100.00;91805.59;4780178;30;20572;-80
2024/02/25 01:21:21;;;;;;;4.93;1.95;;;;;;;1.83;100.00;91799.38;4750024;30;20048;-79
2024/02/25 01:23:47;;;;;;;2.13;1.45;;;;;;;1.83;100.00;91799.38;4754901;30;20032;-81
2024/02/25 01:26:12;;;;;;;4.97;1.75;;;;;;;1.83;100.00;91798.59;4762541;30;20047;-80
2024/02/25 01:28:39;;;;;;;3.58;1.70;;;;;;;1.83;100.00;91804.53;4750627;30;20040;-79
2024/02/25 01:31:05;;;;;;;4.57;1.80;;;;;;;1.85;100.00;91799.13;4755295;30;20512;-79
2024/02/25 01:33:31;;;;;;;2.60;1.63;;;;;;;1.84;100.00;91798.34;4749169;30;20048;-80
2024/02/25 01:35:56;;;;;;;3.35;2.00;;;;;;;1.84;100.00;91793.19;4748508;30;20048;-79
2024/02/25 01:38:22;;;;;;;2.72;1.70;;;;;;;1.85;100.00;91794.75;4748371;30;20095;-81
2024/02/25 01:40:47;;;;;;;3.88;1.80;;;;;;;1.84;100.00;91793.19;4784594;30;20051;-80
2024/02/25 01:43:17;;;;;;;5.88;1.70;;;;;;;1.83;100.00;91790.88;4750753;30;20086;-81
2024/02/25 01:45:43;;;;;;;3.15;1.60;;;;;;;1.79;100.00;91788.00;4755567;30;20521;-79
2024/02/25 01:48:10;;;;;;;2.72;1.67;;;;;;;1.80;100.00;91792.16;4751759;30;20048;-82
2024/02/25 01:50:38;;;;;;;4.93;1.60;;;;;;;1.76;100.00;91791.09;4763617;30;20052;-81
2024/02/25 01:53:04;;;;;;;3.08;1.80;;;;;;;1.69;100.00;91782.78;4760072;30;20641;-81
2024/02/25 01:55:31;;;;;;;3.15;1.70;;;;;;;1.77;100.00;91787.47;4752231;30;20047;-80
2024/02/25 01:58:01;;;;;;;3.58;1.60;;;;;;;1.77;100.00;91776.38;4755245;30;20097;-80
2024/02/25 02:00:28;;;;;;;1.80;1.40;;;;;;;1.74;100.00;91787.97;4760450;30;20044;-80
2024/02/25 02:02:53;;;;;;;3.70;1.80;;;;;;;1.74;100.00;91779.47;4752869;30;20490;-80
2024/02/25 02:05:19;;;;;;;2.88;1.50;;;;;;;1.69;100.00;91775.03;4770995;30;20054;-80
2024/02/25 02:07:47;;;;;;;2.95;1.75;;;;;;;1.66;100.00;91771.13;4753195;30;20064;-80
2024/02/25 02:10:16;;;;;;;2.95;1.60;;;;;;;1.67;100.00;91777.88;4781929;30;20047;-80
2024/02/25 02:12:43;;;;;;;1.95;1.42;;;;;;;1.64;100.00;91772.41;4754095;30;20040;-80
2024/02/25 02:15:12;;;;;;;3.20;1.60;;;;;;;1.66;100.00;91775.53;4751929;30;20035;-80
2024/02/25 02:17:41;;;;;;;3.50;1.73;;;;;;;1.66;100.00;91780.69;4751788;30;20051;-80
2024/02/25 02:20:12;;;;;;;2.10;1.50;;;;;;;1.66;100.00;91772.94;4783194;30;20052;-81
2024/02/25 02:22:38;;;;;;;2.67;1.58;;;;;;;1.63;100.00;91770.88;4754440;30;20051;-81
2024/02/25 02:25:05;;;;;;;2.75;1.60;;;;;;;1.66;100.00;91775.53;4751140;30;20039;-81
2024/02/25 02:27:30;;;;;;;2.78;1.70;;;;;;;1.61;100.00;91765.19;4758116;30;20040;-79
2024/02/25 02:29:56;;;;;;;2.88;1.65;;;;;;;1.68;100.00;91768.31;4761561;30;20043;-81
2024/02/25 02:32:23;;;;;;;3.35;1.50;;;;;;;1.65;100.00;91771.41;4753135;30;20112;-80
2024/02/25 02:34:49;;;;;;;3.03;1.60;;;;;;;1.64;100.00;91768.06;4774908;30;20040;-81
2024/02/25 02:37:14;;;;;;;2.60;1.50;;;;;;;1.63;100.00;91768.28;4750094;30;20124;-81
2024/02/25 02:39:40;;;;;;;2.38;1.55;;;;;;;1.63;100.00;91763.13;4754255;30;20029;-81
2024/02/25 02:42:10;;;;;;;3.58;1.70;;;;;;;1.61;100.00;91763.38;4752094;30;20043;-81
2024/02/25 02:44:36;;;;;;;4.22;1.73;;;;;;;1.61;100.00;91760.78;4752345;30;20024;-81
2024/02/25 02:47:02;;;;;;;3.28;1.83;;;;;;;1.61;100.00;91758.22;4753149;30;20082;-79
2024/02/25 02:49:27;;;;;;;2.70;1.55;;;;;;;1.65;100.00;91759.28;4752018;30;20487;-80
2024/02/25 02:51:53;;;;;;;2.55;1.45;;;;;;;1.67;100.00;91759.03;4756565;30;20036;-80
2024/02/25 02:54:19;;;;;;;2.10;1.40;;;;;;;1.67;100.00;91762.38;4756943;30;20066;-80
2024/02/25 02:56:44;;;;;;;4.35;1.92;;;;;;;1.69;100.00;91762.16;4755877;30;20099;-80
2024/02/25 02:59:10;;;;;;;3.60;1.95;;;;;;;1.71;100.00;91767.81;4763091;30;20043;-80
2024/02/25 03:01:35;;;;;;;2.55;1.60;;;;;;;1.73;100.00;91764.97;4758602;30;20020;-80
2024/02/25 03:04:01;;;;;;;2.67;1.60;;;;;;;1.72;100.00;91764.22;4757740;30;20044;-81
2024/02/25 03:06:26;;;;;;;2.97;1.55;;;;;;;1.73;100.00;91764.97;4760014;30;20035;-80
2024/02/25 03:08:54;;;;;;;2.45;1.65;;;;;;;1.75;100.00;91773.25;4770518;30;20044;-80
2024/02/25 03:11:19;;;;;;;3.45;1.55;;;;;;;1.75;100.00;91768.88;4752187;30;20297;-80
2024/02/25 03:13:45;;;;;;;4.57;1.80;;;;;;;1.76;100.00;91765.28;4727715;30;20055;-79
2024/02/25 03:16:10;;;;;;;3.00;1.60;;;;;;;1.76;100.00;91769.66;4751822;30;20044;-81
2024/02/25 03:18:36;;;;;;;2.40;1.50;;;;;;;1.80;100.00;91775.84;4769939;30;20062;-80
2024/02/25 03:21:02;;;;;;;3.72;1.50;;;;;;;1.81;100.00;91778.19;4750593;30;20044;-80
2024/02/25 03:23:33;;;;;;;2.40;1.50;;;;;;;1.78;100.00;91776.13;4750197;30;20048;-80
2024/02/25 03:25:59;;;;;;;2.35;1.35;;;;;;;1.80;100.00;91771.50;4754780;30;20071;-78
2024/02/25 03:28:24;;;;;;;3.63;1.40;;;;;;;1.81;100.00;91778.19;4748999;30;20036;-81
2024/02/25 03:30:50;;;;;;;2.55;1.50;;;;;;;1.82;100.00;91779.78;4778548;30;20055;-80
2024/02/25 03:33:18;;;;;;;3.65;1.50;;;;;;;1.83;100.00;91776.16;4757466;30;20411;-80
2024/02/25 03:35:44;;;;;;;2.42;1.50;;;;;;;1.81;100.00;91778.19;4739506;30;20036;-80
2024/02/25 03:38:09;;;;;;;1.88;1.38;;;;;;;1.82;100.00;91774.59;4753835;30;20070;-81
2024/02/25 03:40:35;;;;;;;2.55;1.50;;;;;;;1.78;100.00;91770.97;4752501;30;20097;-81
2024/02/25 03:43:00;;;;;;;2.80;1.48;;;;;;;1.80;100.00;91771.50;4754147;30;20139;-80
2024/02/25 03:45:26;;;;;;;2.40;1.50;;;;;;;1.81;100.00;91770.47;4754165;30;20051;-81
2024/02/25 03:47:51;;;;;;;3.75;1.70;;;;;;;1.80;100.00;91771.50;4752064;30;20060;-81
2024/02/25 03:50:17;;;;;;;2.40;1.40;;;;;;;1.81;100.00;91773.03;4753537;30;20067;-80
2024/02/25 03:52:42;;;;;;;2.03;1.50;;;;;;;1.82;100.00;91774.59;4749848;30;20100;-80
2024/02/25 03:55:08;;;;;;;2.70;1.40;;;;;;;1.83;100.00;91776.16;4734170;30;20040;-80
2024/02/25 03:57:37;;;;;;;2.60;1.42;;;;;;;1.82;100.00;91758.31;4751254;30;20048;-80
2024/02/25 04:00:03;;;;;;;2.67;1.45;;;;;;;1.85;100.00;91761.19;4740279;30;20043;-80
2024/02/25 04:02:29;;;;;;;2.38;1.60;;;;;;;1.82;100.00;91766.88;4758979;30;20067;-80
2024/02/25 04:04:56;;;;;;;3.00;1.75;;;;;;;1.79;100.00;91756.25;4745463;30;20067;-81
2024/02/25 04:07:21;;;;;;;2.40;1.50;;;;;;;1.81;100.00;91762.72;4745426;30;20068;-79
2024/02/25 04:09:47;;;;;;;2.50;1.50;;;;;;;1.83;100.00;91759.91;4768989;30;20097;-80
2024/02/25 04:12:13;;;;;;;2.33;1.40;;;;;;;1.84;100.00;91766.59;4754455;30;20544;-80
2024/02/25 04:14:39;;;;;;;2.63;1.65;;;;;;;1.79;100.00;91757.03;4754120;30;20037;-80
2024/02/25 04:17:04;;;;;;;3.00;1.70;;;;;;;1.78;100.00;91755.47;4754390;30;20048;-81
2024/02/25 04:19:30;;;;;;;5.93;1.70;;;;;;;2.19;100.00;91771.16;4760841;30;20067;-81
2024/02/25 04:21:58;;;;;;;3.05;1.90;;;;;;;2.11;100.00;91769.06;4764505;30;20040;-81
2024/02/25 04:24:23;;;;;;;4.85;2.10;;;;;;;1.86;100.00;91773.06;4748792;30;20477;-81
2024/02/25 04:26:50;;;;;;;2.92;1.95;;;;;;;1.82;100.00;91772.03;4749769;30;20079;-79
2024/02/25 04:29:16;;;;;;;4.05;2.40;;;;;;;1.69;100.00;91775.03;4748100;30;20074;-80
2024/02/25 04:31:45;;;;;;;4.03;2.45;;;;;;;1.63;100.00;91770.88;4777756;30;20059;-80
2024/02/25 04:34:12;;;;;;;4.97;2.70;;;;;;;1.62;100.00;91777.03;4750558;30;20367;-80
2024/02/25 04:36:39;;;;;;;3.60;2.25;;;;;;;1.59;100.00;91772.38;4775780;30;20231;-80
2024/02/25 04:39:05;;;;;;;3.95;2.35;;;;;;;1.60;100.00;91779.09;4762449;30;20542;-80
2024/02/25 04:41:30;;;;;;;3.40;2.05;;;;;;;1.59;100.00;91780.91;4752370;30;20068;-79
2024/02/25 04:43:56;;;;;;;4.70;2.10;;;;;;;1.61;100.00;91788.41;4748438;30;20074;-79
2024/02/25 04:46:22;;;;;;;3.05;2.00;;;;;;;1.59;100.00;91782.72;4748261;30;20485;-81
2024/02/25 04:48:49;;;;;;;3.00;2.00;;;;;;;1.63;100.00;91787.13;4749356;30;20048;-79
2024/02/25 04:51:15;;;;;;;2.40;1.75;;;;;;;1.67;100.00;91788.19;4749687;30;20158;-80
2024/02/25 04:53:40;;;;;;;4.50;2.33;;;;;;;1.65;100.00;91787.66;4752760;30;20044;-81
2024/02/25 04:56:06;;;;;;;5.50;2.40;;;;;;;1.69;100.00;91789.72;4751772;30;20036;-81
2024/02/25 04:58:32;;;;;;;3.58;2.00;;;;;;;1.69;100.00;91785.38;4759470;30;20082;-81
2024/02/25 05:00:58;;;;;;;3.70;1.80;;;;;;;1.72;100.00;91784.84;4745999;30;20040;-79
2024/02/25 05:03:24;;;;;;;3.25;1.90;;;;;;;1.71;100.00;91782.50;4749430;30;20402;-80
2024/02/25 05:05:52;;;;;;;4.43;2.00;;;;;;;1.69;100.00;91790.53;4755454;30;20032;-81
2024/02/25 05:08:17;;;;;;;3.40;1.80;;;;;;;1.69;100.00;91785.38;4759299;30;20548;-81
2024/02/25 05:10:43;;;;;;;3.75;2.00;;;;;;;1.67;100.00;91788.19;4751393;30;20040;-80
2024/02/25 05:13:08;;;;;;;3.78;2.08;;;;;;;1.69;100.00;91795.69;4755304;30;20042;-81
2024/02/25 05:15:35;;;;;;;3.50;1.88;;;;;;;1.69;100.00;91789.72;4755954;30;20036;-81
2024/02/25 05:18:01;;;;;;;3.10;1.80;;;;;;;1.69;100.00;91787.16;4780835;30;20093;-80
2024/02/25 05:20:27;;;;;;;4.20;2.03;;;;;;;1.63;100.00;91787.13;4756116;30;20036;-80
2024/02/25 05:22:54;;;;;;;3.22;1.75;;;;;;;1.69;100.00;91795.69;4755645;30;20144;-80
2024/02/25 05:25:20;;;;;;;2.72;1.73;;;;;;;1.72;100.00;91795.19;4752375;30;20032;-81
2024/02/25 05:27:46;;;;;;;3.00;1.73;;;;;;;1.72;100.00;91800.34;4780552;30;20076;-80
2024/02/25 05:30:13;;;;;;;3.38;1.90;;;;;;;1.71;100.00;91792.84;4775129;30;20036;-81
2024/02/25 05:32:38;;;;;;;3.00;1.70;;;;;;;1.68;100.00;91794.13;4750219;30;20075;-80
2024/02/25 05:35:07;;;;;;;4.75;1.98;;;;;;;1.68;100.00;91804.44;4751629;30;20028;-81
2024/02/25 05:37:33;;;;;;;3.20;2.08;;;;;;;1.64;100.00;91799.00;4762323;30;20078;-80
2024/02/25 05:39:59;;;;;;;3.28;1.80;;;;;;;1.62;100.00;91800.25;4753292;30;20040;-80
2024/02/25 05:42:24;;;;;;;3.40;1.83;;;;;;;1.59;100.00;91798.19;4748593;30;20539;-80
2024/02/25 05:44:53;;;;;;;3.70;1.90;;;;;;;1.58;100.00;91794.84;4750438;30;20100;-80
2024/02/25 05:47:20;;;;;;;2.97;1.98;;;;;;;1.58;100.00;91799.22;4751239;30;20044;-79
2024/02/25 05:49:45;;;;;;;3.35;2.00;;;;;;;1.55;100.00;91799.69;4778538;30;20530;-81
2024/02/25 05:52:11;;;;;;;3.25;1.90;;;;;;;1.61;100.00;91799.50;4754821;30;20040;-80
2024/02/25 05:54:37;;;;;;;3.05;1.90;;;;;;;1.56;100.00;91801.28;4764599;30;20060;-80
2024/02/25 05:57:04;;;;;;;4.55;1.90;;;;;;;1.50;100.00;91791.94;4751237;30;20051;-79
2024/02/25 05:59:30;;;;;;;2.13;1.60;;;;;;;1.48;100.00;91784.44;4760377;30;20040;-80
2024/02/25 06:01:55;;;;;;;3.65;1.75;;;;;;;1.52;100.00;91800.97;4751676;30;20079;-80
2024/02/25 06:04:21;;;;;;;3.38;1.90;;;;;;;1.53;100.00;91801.75;4753967;30;20036;-80
2024/02/25 06:06:51;;;;;;;3.28;1.98;;;;;;;1.51;100.00;91806.38;4745260;30;20048;-79
2024/02/25 06:09:16;;;;;;;2.90;1.75;;;;;;;1.52;100.00;91806.13;4747527;30;20505;-80
2024/02/25 06:11:42;;;;;;;3.08;1.88;;;;;;;1.51;100.00;91806.38;4748590;30;20078;-79
2024/02/25 06:14:08;;;;;;;3.70;1.85;;;;;;;1.53;100.00;91799.97;4750651;30;20032;-80
2024/02/25 06:16:33;;;;;;;3.08;1.70;;;;;;;1.52;100.00;91800.19;4756471;30;20425;-80
2024/02/25 06:18:59;;;;;;;3.58;2.00;;;;;;;1.50;100.00;91802.25;4748867;30;20106;-80
2024/02/25 06:21:25;;;;;;;3.13;1.92;;;;;;;1.49;100.00;91801.47;4743176;30;20048;-80
2024/02/25 06:23:51;;;;;;;3.67;2.00;;;;;;;1.49;100.00;91811.00;4741361;30;20132;-80
2024/02/25 06:26:16;;;;;;;3.63;2.00;;;;;;;1.47;100.00;91806.09;4742159;30;20512;-80
2024/02/25 06:28:42;;;;;;;3.00;1.80;;;;;;;1.48;100.00;91806.88;4742815;30;20036;-80
2024/02/25 06:31:08;;;;;;;2.67;1.60;;;;;;;1.47;100.00;91800.94;4749675;30;20043;-80
2024/02/25 06:33:34;;;;;;;3.35;1.90;;;;;;;1.49;100.00;91803.25;4745494;30;20040;-79
2024/02/25 06:36:00;;;;;;;2.63;1.80;;;;;;;1.49;100.00;91803.25;4748663;30;20044;-80
2024/02/25 06:38:26;;;;;;;4.35;2.00;;;;;;;1.52;100.00;91810.53;4744453;30;20101;-80
2024/02/25 06:40:52;;;;;;;3.67;1.90;;;;;;;1.54;100.00;91814.41;4746062;30;20438;-80
2024/02/25 06:43:17;;;;;;;4.88;1.90;;;;;;;1.58;100.00;91809.53;4743692;30;20043;-80
2024/02/25 06:45:43;;;;;;;3.25;1.90;;;;;;;1.61;100.00;91817.53;4744397;30;20037;-80
2024/02/25 06:48:08;;;;;;;4.47;1.80;;;;;;;1.63;100.00;91817.31;4745443;30;20063;-80
2024/02/25 06:50:34;;;;;;;4.45;1.95;;;;;;;1.65;100.00;91816.03;4741355;30;20056;-80
2024/02/25 06:53:00;;;;;;;3.63;1.77;;;;;;;1.74;100.00;91820.75;4743561;30;20545;-80
2024/02/25 06:55:26;;;;;;;2.63;1.80;;;;;;;1.75;100.00;91820.47;4742339;30;20505;-80
2024/02/25 06:57:52;;;;;;;4.00;1.90;;;;;;;1.72;100.00;91813.25;4750821;30;20040;-79
2024/02/25 07:00:18;;;;;;;3.90;2.00;;;;;;;1.81;100.00;91819.50;4744361;30;20059;-80
2024/02/25 07:02:43;;;;;;;3.00;1.70;;;;;;;1.84;100.00;91816.41;4743568;30;20464;-80
2024/02/25 07:05:09;;;;;;;3.55;2.00;;;;;;;1.86;100.00;91811.78;4743551;30;20509;-79
2024/02/25 07:07:36;;;;;;;3.22;1.98;;;;;;;1.91;100.00;91815.41;4744630;30;20036;-78
2024/02/25 07:10:02;;;;;;;4.97;2.00;;;;;;;1.94;100.00;91823.44;4769838;30;20459;-80
2024/02/25 07:12:28;;;;;;;2.47;1.67;;;;;;;1.96;100.00;91826.56;4743429;30;20036;-80
2024/02/25 07:14:53;;;;;;;2.42;1.67;;;;;;;1.97;100.00;91824.75;4742446;30;20052;-80
2024/02/25 07:17:19;;;;;;;4.10;1.75;;;;;;;2.00;100.00;91824.25;4745474;30;20043;-80
2024/02/25 07:19:45;;;;;;;3.00;1.70;;;;;;;2.01;100.00;91834.34;4748934;30;20072;-79
2024/02/25 07:22:11;;;;;;;2.88;1.70;;;;;;;2.05;100.00;91834.63;4755801;30;20040;-79
2024/02/25 07:24:37;;;;;;;2.60;1.58;;;;;;;2.11;100.00;91828.44;4742333;30;20114;-80
2024/02/25 07:27:03;;;;;;;2.28;1.58;;;;;;;2.14;100.00;91837.50;4744870;30;20063;-80
2024/02/25 07:29:29;;;;;;;4.30;1.60;;;;;;;2.11;100.00;91838.75;4745569;30;20040;-80
2024/02/25 07:31:55;;;;;;;4.90;1.70;;;;;;;2.07;100.00;91843.66;4736629;30;20041;-80
2024/02/25 07:34:21;;;;;;;2.80;1.40;;;;;;;2.02;100.00;91840.25;4743789;30;20032;-80
2024/02/25 07:36:46;;;;;;;3.38;1.92;;;;;;;2.02;100.00;91835.09;4745506;30;20035;-80
2024/02/25 07:39:12;;;;;;;4.45;1.83;;;;;;;1.98;100.00;91823.72;4746961;30;20048;-80
2024/02/25 07:41:37;;;;;;;2.85;1.60;;;;;;;2.14;100.00;91838.28;4745925;30;20410;-80
2024/02/25 07:44:03;;;;;;;2.67;1.58;;;;;;;2.42;100.00;91838.94;4741827;30;20086;-80
2024/02/25 07:46:29;;;;;;;3.38;2.03;;;;;;;2.19;100.00;91846.06;4735800;30;20479;-79
2024/02/25 07:48:55;;;;;;;3.53;1.80;;;;;;;2.02;100.00;91841.03;4770025;30;20056;-79
2024/02/25 07:51:20;;;;;;;2.97;1.58;;;;;;;2.03;100.00;91840.03;4743582;30;20067;-80
2024/02/25 07:53:48;;;;;;;2.67;1.67;;;;;;;2.20;100.00;91834.69;4744428;30;20060;-77
2024/02/25 07:56:18;;;;;;;2.78;1.80;;;;;;;2.06;100.00;91831.78;4744995;30;20040;-79
2024/02/25 07:58:44;;;;;;;3.80;2.10;;;;;;;2.03;100.00;91836.69;4742339;30;20052;-79
2024/02/25 08:01:10;;;;;;;3.55;2.03;;;;;;;1.98;100.00;91829.69;4745065;30;20052;-78
2024/02/25 08:03:35;;;;;;;3.17;1.75;;;;;;;2.05;100.00;91834.63;4746279;30;20046;-79
2024/02/25 08:06:01;;;;;;;2.42;1.58;;;;;;;2.01;100.00;91833.56;4745945;30;20111;-79
2024/02/25 08:08:27;;;;;;;2.60;1.60;;;;;;;2.07;100.00;91835.13;4742892;30;20040;-79
2024/02/25 08:10:52;;;;;;;2.50;1.40;;;;;;;2.09;100.00;91830.50;4730951;30;20475;-80
2024/02/25 08:13:20;;;;;;;2.97;1.63;;;;;;;2.09;100.00;91835.66;4749774;30;20056;-80
2024/02/25 08:15:46;;;;;;;2.00;1.40;;;;;;;2.11;100.00;91830.25;4751104;30;20051;-80
2024/02/25 08:18:11;;;;;;;3.38;1.67;;;;;;;2.11;100.00;91838.75;4747952;30;20540;-81
2024/02/25 08:20:37;;;;;;;2.35;1.40;;;;;;;2.52;100.00;91833.78;4730675;30;20090;-79
2024/02/25 08:23:03;;;;;;;2.50;1.40;;;;;;;2.47;100.00;91839.72;4740938;30;20624;-79
2024/02/25 08:25:28;;;;;;;4.10;2.10;;;;;;;2.30;100.00;91836.56;4739904;30;20044;-81
2024/02/25 08:27:54;;;;;;;2.47;1.60;;;;;;;2.40;100.00;91841.00;4744574;30;20126;-80
2024/02/25 08:30:20;;;;;;;2.47;1.60;;;;;;;2.34;100.00;91841.97;4750938;30;20060;-80
2024/02/25 08:32:46;;;;;;;2.80;1.67;;;;;;;2.35;100.00;91835.81;4749487;30;20096;-80
2024/02/25 08:35:12;;;;;;;2.95;1.52;;;;;;;2.35;100.00;91834.00;4748546;30;20044;-80
2024/02/25 08:37:39;;;;;;;2.17;1.60;;;;;;;2.42;100.00;91837.13;4726824;30;20295;-81
2024/02/25 08:40:05;;;;;;;3.45;1.50;;;;;;;2.69;100.00;91829.22;4754762;30;20040;-80
2024/02/25 08:42:31;;;;;;;3.47;1.60;;;;;;;2.68;100.00;91838.00;4768525;30;20187;-81
2024/02/25 08:44:57;;;;;;;2.45;1.58;;;;;;;2.69;100.00;91844.72;4754186;30;20024;-81
2024/02/25 08:47:23;;;;;;;2.10;1.50;;;;;;;2.78;100.00;91841.66;4750788;30;20143;-81
2024/02/25 08:49:49;;;;;;;3.30;1.88;;;;;;;2.60;100.00;91843.66;4751749;30;20413;-81
2024/02/25 08:52:15;;;;;;;2.22;1.52;;;;;;;2.39;100.00;91835.06;4753161;30;20047;-82
2024/02/25 08:54:42;;;;;;;2.00;1.48;;;;;;;2.37;100.00;91826.78;4753483;30;20032;-80
2024/02/25 08:57:08;;;;;;;3.45;1.70;;;;;;;2.33;100.00;91830.09;4753665;30;20052;-81
2024/02/25 08:59:33;;;;;;;2.88;1.70;;;;;;;2.44;100.00;91829.13;4752703;30;20044;-81
2024/02/25 09:02:04;;;;;;;3.88;1.60;;;;;;;2.63;100.00;91837.19;4757515;30;20547;-80
2024/02/25 09:04:31;;;;;;;2.40;1.73;;;;;;;2.61;100.00;91841.84;4755395;30;20104;-82
2024/02/25 09:06:58;;;;;;;2.83;1.95;;;;;;;2.79;100.00;91838.03;4754288;30;20032;-81
2024/02/25 09:09:24;;;;;;;3.67;2.08;;;;;;;2.84;100.00;91832.91;4755469;30;20036;-79
2024/02/25 09:11:50;;;;;;;3.08;1.98;;;;;;;2.88;100.00;91846.84;4783428;29;20042;-78
2024/02/25 09:14:17;;;;;;;3.80;2.10;;;;;;;2.78;100.00;91841.66;4747307;30;20564;-79
2024/02/25 09:16:43;;;;;;;3.28;2.20;;;;;;;2.97;100.00;91840.16;4753318;30;20030;-79
2024/02/25 09:19:09;;;;;;;3.65;2.50;;;;;;;3.07;100.00;91844.59;4755153;30;20059;-79
2024/02/25 09:21:34;;;;;;;4.22;2.40;;;;;;;3.05;100.00;91837.06;4750248;30;20036;-80
2024/02/25 09:24:01;;;;;;;2.10;1.52;;;;;;;3.22;100.00;91841.22;4751627;30;20064;-79
2024/02/25 09:26:26;;;;;;;3.92;2.20;;;;;;;3.36;100.00;91842.31;4747513;30;20075;-80
2024/02/25 09:28:52;;;;;;;3.60;2.30;;;;;;;3.26;100.00;91840.47;4751477;30;20492;-80
2024/02/25 09:31:18;;;;;;;4.03;1.92;;;;;;;3.15;100.00;91845.88;4748805;30;20127;-79
2024/02/25 09:33:45;;;;;;;4.50;2.20;;;;;;;3.07;100.00;91839.41;4753218;30;20051;-80
2024/02/25 09:36:11;;;;;;;2.85;1.80;;;;;;;3.10;100.00;91844.06;4749068;30;20036;-79
2024/02/25 09:38:36;;;;;;;3.00;1.85;;;;;;;2.94;100.00;91843.25;4763717;29;20135;-83
2024/02/25 09:41:04;;;;;;;2.88;1.77;;;;;;;3.01;100.00;91838.59;4752230;30;20066;-81
2024/02/25 09:43:30;;;;;;;1.75;1.25;;;;;;;3.05;100.00;91839.66;4753879;30;20040;-82
2024/02/25 09:45:57;;;;;;;2.00;1.30;;;;;;;3.02;100.00;91845.34;4782827;30;20039;-79
2024/02/25 09:48:24;;;;;;;2.78;1.30;;;;;;;2.96;100.00;91835.25;4754499;30;20056;-81
2024/02/25 09:50:50;;;;;;;4.05;1.63;;;;;;;2.98;100.00;91825.44;4746756;30;20094;-81
2024/02/25 09:53:21;;;;;;;3.50;1.70;;;;;;;3.16;100.00;91839.69;4751824;30;20040;-82
2024/02/25 09:55:47;;;;;;;4.00;2.00;;;;;;;3.16;100.00;91831.94;4750667;30;20040;-80
2024/02/25 09:58:14;;;;;;;2.70;1.60;;;;;;;3.27;100.00;91829.09;4751296;30;20072;-81
2024/02/25 10:00:40;;;;;;;2.70;1.70;;;;;;;3.65;100.00;91834.81;4749700;30;20032;-81
2024/02/25 10:03:11;;;;;;;3.67;1.98;;;;;;;3.65;100.00;91834.06;4761238;30;20113;-81
2024/02/25 10:05:37;;;;;;;5.05;2.00;;;;;;;3.73;100.00;91826.50;4748883;30;20096;-81
2024/02/25 10:08:07;;;;;;;18.98;2.90;;;;;;;3.51;100.00;91828.59;4747492;30;20630;-79
2024/02/25 10:10:39;;;;;;;38.47;4.25;;;;;;;3.41;100.00;91836.34;4769996;30;20369;-79
2024/02/25 10:13:05;;;;;;;107.40;8.00;;;;;;;3.40;100.00;91833.00;4743828;30;20043;-79
2024/02/25 10:15:31;;;;;;;4.20;2.92;;;;;;;3.74;100.00;91827.31;4743729;30;20095;-80
2024/02/25 10:17:57;;;;;;;7.53;5.70;;;;;;;4.13;100.00;91824.16;4745840;30;20046;-80
2024/02/25 10:20:22;;;;;;;3.08;1.80;;;;;;;5.14;100.00;91832.59;4743305;30;20119;-80
2024/02/25 10:23:04;;;;;;;3.38;2.20;;;;;;;5.27;100.00;91833.81;4744594;30;20048;-80
2024/02/25 10:25:31;;;;;;;4.95;1.67;;;;;;;5.34;100.00;91830.91;4744409;30;20035;-80
2024/02/25 10:28:13;;;;;;;5.13;2.60;;;;;;;4.93;100.00;91837.09;4726267;30;20127;-80
2024/02/25 10:30:38;;;;;;;5.53;2.78;;;;;;;4.26;100.00;91828.00;4746789;30;20050;-79
2024/02/25 10:33:13;;;;;;;4.63;3.40;;;;;;;3.90;100.00;91821.06;4754702;30;20485;-79
2024/02/25 10:35:39;;;;;;;5.05;3.00;;;;;;;3.68;100.00;91825.75;4748714;30;20050;-79
2024/02/25 10:38:09;;;;;;;4.22;2.70;;;;;;;3.43;100.00;91832.47;4742421;30;20119;-79
2024/02/25 10:40:35;;;;;;;4.05;2.70;;;;;;;3.98;100.00;91832.72;4745231;30;20132;-79
2024/02/25 10:43:01;;;;;;;4.32;2.35;;;;;;;3.91;100.00;91827.78;4742729;30;20500;-79
2024/02/25 10:45:28;;;;;;;4.32;2.67;;;;;;;4.06;100.00;91828.81;4744790;30;20468;-79
2024/02/25 10:47:55;;;;;;;4.88;2.63;;;;;;;4.03;100.00;91818.97;4746299;30;20063;-79
2024/02/25 10:50:22;;;;;;;3.92;2.22;;;;;;;4.04;100.00;91815.38;4747002;30;20047;-79
2024/02/25 10:52:50;;;;;;;3.20;2.08;;;;;;;4.07;100.00;91805.25;4747730;30;20564;-76
2024/02/25 10:55:17;;;;;;;3.70;1.85;;;;;;;3.84;100.00;91806.56;4752545;30;20444;-79
2024/02/25 10:57:43;;;;;;;2.28;1.60;;;;;;;3.80;100.00;91810.72;4756229;30;20047;-78
2024/02/25 11:00:11;;;;;;;3.20;1.98;;;;;;;3.76;100.00;91809.72;4747780;30;20311;-78
2024/02/25 11:02:37;;;;;;;3.20;1.98;;;;;;;3.79;100.00;91798.81;4741968;30;20121;-79
2024/02/25 11:05:04;;;;;;;4.82;2.92;;;;;;;3.61;100.00;91807.13;4741661;30;20036;-79
2024/02/25 11:07:29;;;;;;;3.05;1.88;;;;;;;3.49;100.00;91805.56;4747400;30;20116;-79
2024/02/25 11:09:55;;;;;;;2.13;1.38;;;;;;;3.55;100.00;91807.09;4742782;30;20052;-79
2024/02/25 11:12:25;;;;;;;2.72;1.80;;;;;;;3.50;100.00;91796.75;4738459;30;20048;-79
2024/02/25 11:14:51;;;;;;;3.67;2.00;;;;;;;3.52;100.00;91805.03;4742969;30;20048;-79
2024/02/25 11:17:24;;;;;;;4.25;2.10;;;;;;;3.38;100.00;91793.66;4745754;30;20099;-78
2024/02/25 11:20:01;;;;;;;;;;;;;;;3.22;100.00;91789.50;4745899;30;20047;-79
2024/02/25 11:22:47;;;;;;;2.90;1.95;;;;;;;3.16;100.00;91795.72;4747440;30;19918;-80
2024/02/25 11:25:27;;;;;;;3.47;2.33;;;;;;;3.01;100.00;91799.06;4747938;30;20036;-79
2024/02/25 11:28:13;;;;;;;1.85;1.48;;;;;;;2.98;100.00;91795.19;4748920;30;20044;-79
2024/02/25 11:30:43;;;;;;;4.60;2.63;;;;;;;2.87;100.00;91794.38;4748154;30;20390;-78